• Join FlightAware (Why Join?)
  • Login
  • US Flag 
02:15PM EDT


 

Airport Tracker/Info


-or-


 

Live Flight TrackerFlight Track Log ✈ XOJ552 ✈ 06-Feb-2014 ✈ KUGN - KPNE

Flight Track Log - Related Links

Times and Time Zones

All times are in EST time to prevent confusion due to time zone crossing. See the XOJ552 flight status page for this flight to view local times or setup timezone preferences in your user account.

Time Position Orientation Groundspeed Altitude Reporting Facility
EST Latitude Longitude Course Direction KTS MPH feet Rate Location/Type
04:48PM 42.3644 -87.7992 111° Southeast 248 285 5,300  Level Chicago Center
04:49PM 42.2983 -87.7175 138° Southeast 293 337 10,400 3,660 Climbing Chicago Center
04:50PM 42.2436 -87.6147 126° Southeast 329 379 12,900 3,060 Climbing Chicago Center
04:51PM 42.2106 -87.4744 108° East 399 459 16,800 3,600 Climbing Chicago Center
04:52PM 42.1878 -87.3217 101° East 413 475 20,500 3,360 Climbing Chicago Center
04:53PM 41.9627 -87.0990 129° Southeast  Level FlightAware Approximate
04:53PM 42.1639 -87.1608 101° East 432 497 23,900  Level Chicago Center
04:54PM 42.1364 -86.9775 101° East 461 531 26,700 2,460 Climbing Chicago Center
04:55PM 42.1008 -86.7683 103° East 499 574 29,000 1,980 Climbing Chicago Center
04:56PM 42.0742 -86.5908 101° East 526 605 30,800 1,800 Climbing Chicago Center
04:57PM 42.0431 -86.3936 102° East 536 617 32,800 1,740 Climbing Chicago Center
04:58PM 42.0094 -86.1944 103° East 544 626 34,400 2,100 Climbing Chicago Center
04:59PM 41.9708 -85.9531 102° East 549 632 37,200 1,980 Climbing Chicago Center
05:00PM 41.9364 -85.7569 103° East 540 621 38,500 1,320 Climbing Chicago Center
05:01PM 41.9039 -85.5533 102° East 551 634 40,000 1,200 Climbing Chicago Center
05:03PM 41.8683 -85.3514 103° East 548 631 41,000 480 Climbing Chicago Center
05:04PM 41.8325 -85.1461 103° East 555 639 41,000  Level Chicago Center
05:05PM 41.7969 -84.9333 103° East 576 663 41,000  Level Chicago Center
05:06PM 41.7608 -84.7219 103° East 581 669 41,000  Level Chicago Center
05:06PM 41.7311 -84.5578 104° East 572 658 41,000  Level Cleveland Center
05:07PM 41.6872 -84.3556 106° East 568 654 41,000 -60 Level Cleveland Center
05:08PM 41.6406 -84.1525 107° East 565 650 40,900 -540 Descending Cleveland Center
05:09PM 41.5967 -83.9506 106° East 570 656 39,900 -960 Descending Cleveland Center
05:11PM 41.5439 -83.7133 106° East 564 649 39,000 -480 Descending Cleveland Center
05:12PM 41.5000 -83.5197 107° East 553 636 39,000  Level Cleveland Center
05:13PM 41.4536 -83.3236 107° East 558 642 39,000  Level Cleveland Center
05:14PM 41.4025 -83.1028 107° East 560 644 39,000  Level Cleveland Center
05:15PM 41.3561 -82.9031 107° East 562 647 39,000  Level Cleveland Center
05:16PM 41.3094 -82.7022 107° East 564 649 39,000  Level Cleveland Center
05:17PM 41.2608 -82.5033 108° East 563 648 39,000  Level Cleveland Center
05:18PM 41.2147 -82.3042 107° East 563 648 39,000  Level Cleveland Center
05:19PM 41.1683 -82.1089 107° East 566 651 39,000  Level Cleveland Center
05:20PM 41.1106 -81.8728 108° East 566 651 39,000  Level Cleveland Center
05:21PM 41.0625 -81.6742 108° East 571 657 39,000  Level Cleveland Center
05:22PM 41.0133 -81.4786 108° East 564 649 39,000  Level Cleveland Center
05:23PM 40.9633 -81.2828 109° East 561 646 39,000  Level Cleveland Center
05:24PM 40.9139 -81.0872 108° East 560 644 39,000  Level Cleveland Center
05:25PM 40.8628 -80.8914 109° East 558 642 39,000  Level Cleveland Center
05:26PM 40.8056 -80.6656 108° East 555 639 39,000  Level Cleveland Center
05:27PM 40.7553 -80.4725 109° East 553 636 39,000  Level Cleveland Center
05:28PM 40.7086 -80.2914 109° East 557 641 39,000  Level Cleveland Center
05:29PM 40.6475 -80.0633 109° East 554 638 39,000 -480 Level Cleveland Center
05:30PM 40.6003 -79.8842 109° East 554 638 38,100 -1,260 Descending Cleveland Center
05:31PM 40.5492 -79.6911 109° East 555 639 36,400 -1,800 Descending Cleveland Center
05:32PM 40.4972 -79.4933 109° East 566 651 34,400 -2,040 Descending Cleveland Center
05:33PM 40.4594 -79.2883 104° East 570 656 32,300 -1,680 Descending Cleveland Center
05:34PM 40.4447 -79.0369 94° East 581 669 31,000 -660 Descending Cleveland Center
05:35PM 40.4314 -78.8253 95° East 587 676 31,000  Level Cleveland Center
05:36PM 40.4175 -78.6100 95° East 595 685 31,000 -360 Level Cleveland Center
05:37PM 40.4025 -78.3969 95° East 594 684 30,300 -2,220 Descending Cleveland Center
05:38PM 40.3867 -78.1444 95° East 588 677 26,500 -2,580 Descending Cleveland Center
05:39PM 40.3700 -77.9492 96° East 551 634 25,000 -1,020 Descending Cleveland Center
05:41PM 40.3564 -77.7569 95° East 535 616 24,500 -960 Descending Cleveland Center
05:42PM 40.3414 -77.5672 96° East 528 608 23,000 -960 Descending Cleveland Center
05:43PM 40.3267 -77.3817 96° East 516 594 22,600 -1,020 Descending Cleveland Center
05:44PM 40.3075 -77.1592 96° East 520 598 21,000 -1,500 Descending New York Center
05:45PM 40.2797 -76.9772 101° East 520 598 19,600 -1,500 Descending New York Center
05:46PM 40.2403 -76.8103 107° East 500 575 18,000 -1,380 Descending New York Center
05:47PM 40.2044 -76.6522 106° East 467 537 16,900 -1,320 Descending New York Center
05:48PM 40.1717 -76.5136 107° East 445 512 15,400 -1,440 Descending New York Center
05:49PM 40.1372 -76.3669 107° East 431 496 14,000 -1,560 Descending New York Center
05:50PM 40.1153 -76.2103 100° East 411 473 12,300 -1,500 Descending New York Center
05:51PM 40.1064 -76.0819 95° East 374 430 11,100 -1,080 Descending New York Center
05:52PM 40.1008 -75.9758 94° East 337 388 10,200 -1,080 Descending New York Center
05:53PM 40.0875 -75.8528 98° East 315 362 9,000 -1,200 Descending New York Center
05:54PM 40.0814 -75.7519 94° East 310 357 7,900 -1,200 Descending New York Center
05:55PM 40.0800 -75.6325 91° East 300 345 6,600 -1,200 Descending New York Center
05:56PM 40.0819 -75.5322 89° East 295 339 5,500 -1,140 Descending New York Center
05:57PM 40.1108 -75.4364 68° East 272 313 4,400 -1,080 Descending New York Center
05:58PM 40.1331 -75.3483 72° East 261 300 3,400 -780 Descending New York Center
05:59PM 40.1322 -75.2614 91° East 251 289 2,900 -540 Descending New York Center
06:00PM 40.1206 -75.1872 102° East 216 249 2,400 -480 Descending New York Center
06:01PM 40.1086 -75.1133 102° East 211 243 2,000 -240 Descending New York Center
06:02PM 40.1314 -75.0603 61° Northeast 167 192 2,000 -300 Level New York Center
06:03PM 40.1333 -75.0089 87° East 145 167 1,500 -600 Descending New York Center
06:04PM 40.1139 -74.9669 121° Southeast 132 152 900 -600 Descending New York Center
06:06PM 40.0819 -75.0106 217° Southwest  Level Estimated